createdAt,value
2022-08-26T00:01:13.811Z,16.23
2022-08-26T00:03:43.535Z,16.19
2022-08-26T00:06:14.051Z,16.19
2022-08-26T00:08:50.967Z,16.16
2022-08-26T00:11:26.418Z,16.25
2022-08-26T00:13:58.422Z,16.17
2022-08-26T00:16:29.913Z,16.19
2022-08-26T00:19:00.790Z,16.21
2022-08-26T00:21:30.147Z,16.24
2022-08-26T00:24:03.157Z,16.11
2022-08-26T00:26:36.175Z,16.21
2022-08-26T00:29:09.541Z,16.20
2022-08-26T00:31:45.523Z,16.17
2022-08-26T00:34:35.442Z,16.21
2022-08-26T00:37:14.524Z,16.17
2022-08-26T00:39:51.235Z,16.18
2022-08-26T00:42:25.346Z,16.19
2022-08-26T00:44:59.556Z,16.16
2022-08-26T00:48:03.047Z,16.17
2022-08-26T00:50:41.202Z,16.17
2022-08-26T00:53:27.973Z,16.18
2022-08-26T00:56:25.795Z,16.17
2022-08-26T00:59:03.005Z,16.18
2022-08-26T01:01:41.456Z,16.16
2022-08-26T01:04:23.700Z,16.15
2022-08-26T01:06:56.882Z,16.09
2022-08-26T01:09:27.647Z,16.15
2022-08-26T01:12:00.818Z,16.10
2022-08-26T01:14:37.993Z,16.22
2022-08-26T01:17:10.431Z,15.94
2022-08-26T01:19:46.080Z,16.19
2022-08-26T01:22:26.659Z,16.28
2022-08-26T01:25:05.897Z,16.27
2022-08-26T01:27:38.068Z,16.30
2022-08-26T01:30:08.836Z,16.35
2022-08-26T01:32:41.624Z,16.35
2022-08-26T01:35:12.310Z,16.39
2022-08-26T01:37:43.097Z,16.39
2022-08-26T01:40:20.414Z,16.42
2022-08-26T01:42:55.001Z,16.48
2022-08-26T01:45:32.277Z,16.55
2022-08-26T01:48:06.070Z,16.59
2022-08-26T01:50:38.756Z,16.58
2022-08-26T01:53:12.644Z,16.62
2022-08-26T01:55:48.272Z,16.66
2022-08-26T01:58:35.849Z,16.66
2022-08-26T02:01:06.396Z,16.63
2022-08-26T02:03:38.749Z,16.53
2022-08-26T02:06:12.272Z,16.60
2022-08-26T02:08:57.569Z,16.64
2022-08-26T02:11:27.369Z,16.67
2022-08-26T02:14:02.873Z,16.60
2022-08-26T02:16:42.441Z,16.67
2022-08-26T02:19:18.413Z,16.74
2022-08-26T02:21:54.213Z,16.71
2022-08-26T02:24:28.736Z,16.87
2022-08-26T02:26:59.592Z,16.93
2022-08-26T02:29:39.614Z,16.98
2022-08-26T02:32:10.985Z,17.02
2022-08-26T02:34:41.871Z,17.05
2022-08-26T02:37:13.022Z,17.12
2022-08-26T02:39:44.096Z,17.21
2022-08-26T02:42:13.996Z,17.30
2022-08-26T02:44:44.422Z,17.30
2022-08-26T02:47:16.715Z,17.50
2022-08-26T02:49:47.798Z,17.53
2022-08-26T02:52:18.457Z,17.57
2022-08-26T02:54:49.533Z,17.53
2022-08-26T02:57:20.589Z,17.59
2022-08-26T02:59:52.098Z,17.70
2022-08-26T03:02:22.711Z,17.79
2022-08-26T03:04:57.480Z,17.74
2022-08-26T03:07:31.325Z,17.83
2022-08-26T03:10:06.950Z,17.82
2022-08-26T03:12:38.731Z,17.77
2022-08-26T03:15:17.469Z,17.72
2022-08-26T03:17:51.052Z,17.60
2022-08-26T03:20:20.777Z,17.79
2022-08-26T03:22:52.723Z,18.07
2022-08-26T03:25:27.041Z,18.18
2022-08-26T03:27:56.967Z,18.22
2022-08-26T03:30:44.817Z,18.16
2022-08-26T03:33:16.892Z,18.45
2022-08-26T03:35:50.744Z,18.59
2022-08-26T03:38:28.466Z,18.70
2022-08-26T03:40:58.397Z,18.99
2022-08-26T03:43:28.490Z,18.92
2022-08-26T03:45:58.446Z,19.02
2022-08-26T03:48:28.082Z,19.12
2022-08-26T03:50:58.228Z,19.23
2022-08-26T03:53:28.810Z,19.04
2022-08-26T03:55:58.984Z,19.02
2022-08-26T03:58:33.499Z,18.96
2022-08-26T04:01:03.517Z,18.85
2022-08-26T04:03:51.422Z,19.02
2022-08-26T04:06:21.775Z,19.00
2022-08-26T04:08:51.528Z,19.33
2022-08-26T04:11:23.425Z,19.49
2022-08-26T04:13:53.261Z,19.70
2022-08-26T04:16:23.024Z,19.94
2022-08-26T04:18:58.428Z,19.99
2022-08-26T04:21:29.783Z,19.94
2022-08-26T04:23:59.783Z,19.58
2022-08-26T04:26:39.468Z,19.42
2022-08-26T04:29:17.324Z,19.27
2022-08-26T04:31:49.297Z,19.14
2022-08-26T04:34:23.672Z,19.12
2022-08-26T04:36:53.459Z,18.94
2022-08-26T04:39:23.353Z,18.95
2022-08-26T04:41:58.042Z,19.05
2022-08-26T04:44:32.142Z,19.16
2022-08-26T04:47:02.212Z,19.19
2022-08-26T04:49:35.367Z,19.16
2022-08-26T04:52:06.295Z,19.23
2022-08-26T04:54:37.868Z,19.34
2022-08-26T04:57:11.646Z,19.24
2022-08-26T04:59:42.309Z,19.56
2022-08-26T05:02:12.754Z,19.61
2022-08-26T05:04:44.884Z,19.48
2022-08-26T05:07:14.624Z,19.29
2022-08-26T05:09:47.488Z,19.14
2022-08-26T05:12:17.881Z,18.93
2022-08-26T05:14:49.423Z,18.96
2022-08-26T05:17:19.205Z,18.83
2022-08-26T05:19:49.497Z,18.95
2022-08-26T05:22:19.458Z,18.95
2022-08-26T05:24:51.407Z,19.07
2022-08-26T05:27:21.000Z,19.02
2022-08-26T05:29:54.342Z,19.00
2022-08-26T05:32:24.371Z,19.15
2022-08-26T05:34:58.596Z,19.36
2022-08-26T05:37:28.512Z,19.52
2022-08-26T05:39:57.967Z,19.58
2022-08-26T05:42:27.741Z,19.67
2022-08-26T05:44:57.970Z,19.70
2022-08-26T05:47:28.145Z,19.55
2022-08-26T05:49:58.096Z,19.55
2022-08-26T05:52:27.796Z,19.54
2022-08-26T05:54:57.777Z,19.49
2022-08-26T05:57:27.080Z,19.32
2022-08-26T05:59:58.806Z,19.24
2022-08-26T06:02:29.816Z,19.05
2022-08-26T06:17:39.546Z,18.59
2022-08-26T06:20:09.992Z,18.76
2022-08-26T06:22:57.811Z,18.74
2022-08-26T06:25:39.427Z,18.69
2022-08-26T06:28:09.606Z,18.75
2022-08-26T06:30:43.672Z,20.10
2022-08-26T06:33:15.067Z,19.96
2022-08-26T06:35:47.876Z,19.37
2022-08-26T06:38:52.740Z,19.41
2022-08-26T06:41:25.659Z,19.42
2022-08-26T06:43:58.509Z,19.19
2022-08-26T06:46:29.417Z,19.06
2022-08-26T06:49:02.319Z,18.66
2022-08-26T06:51:35.320Z,18.71
2022-08-26T06:54:08.059Z,18.77
2022-08-26T06:56:47.896Z,18.57
2022-08-26T06:59:20.176Z,18.54
2022-08-26T07:01:50.458Z,18.53
2022-08-26T07:04:22.457Z,18.48
2022-08-26T07:06:54.252Z,18.05
2022-08-26T07:09:27.141Z,18.47
2022-08-26T07:11:57.998Z,18.63
2022-08-26T07:14:29.241Z,18.42
2022-08-26T07:17:00.678Z,18.66
2022-08-26T07:19:31.749Z,18.99
2022-08-26T07:22:05.412Z,19.81
2022-08-26T07:24:38.223Z,19.33
2022-08-26T07:27:10.907Z,19.39
2022-08-26T07:29:43.644Z,19.52
2022-08-26T07:32:15.787Z,19.32
2022-08-26T07:34:46.909Z,19.47
2022-08-26T07:37:17.666Z,19.46
2022-08-26T07:39:53.583Z,19.32
2022-08-26T07:42:24.091Z,19.46
2022-08-26T07:44:54.001Z,19.15
2022-08-26T07:47:26.712Z,19.05
2022-08-26T07:49:58.952Z,19.05
2022-08-26T07:52:31.253Z,19.07
2022-08-26T07:55:03.944Z,19.10
2022-08-26T07:57:34.090Z,18.79
2022-08-26T08:00:11.252Z,18.72
2022-08-26T08:02:48.519Z,18.72
2022-08-26T08:05:33.353Z,18.46
2022-08-26T08:08:26.875Z,18.53
2022-08-26T08:10:57.529Z,18.44
2022-08-26T08:13:30.462Z,18.61
2022-08-26T08:16:01.949Z,18.72
2022-08-26T08:18:35.172Z,18.71
2022-08-26T08:21:21.264Z,18.62
2022-08-26T08:23:56.911Z,18.49
2022-08-26T08:26:29.170Z,18.50
2022-08-26T08:29:00.104Z,18.35
2022-08-26T08:34:27.650Z,18.25
2022-08-26T08:36:58.575Z,18.26
2022-08-26T08:39:29.613Z,18.34
2022-08-26T08:42:07.935Z,18.41
2022-08-26T08:44:43.116Z,18.36
2022-08-26T08:47:21.620Z,18.63
2022-08-26T08:49:51.591Z,18.53
2022-08-26T08:52:32.663Z,18.41
2022-08-26T09:08:37.271Z,18.31
2022-08-26T09:11:11.413Z,18.51
2022-08-26T09:13:45.705Z,18.58
2022-08-26T09:26:55.336Z,19.11
2022-08-26T09:29:29.414Z,19.26
2022-08-26T09:32:25.426Z,19.42
2022-08-26T09:35:02.263Z,19.46
2022-08-26T09:40:34.890Z,19.18
2022-08-26T09:43:13.482Z,19.14
2022-08-26T09:45:50.046Z,19.09
2022-08-26T09:48:34.855Z,19.09
2022-08-26T09:51:33.107Z,18.78
2022-08-26T09:54:05.648Z,18.92
2022-08-26T09:56:40.276Z,19.52
2022-08-26T09:59:13.773Z,20.14
2022-08-26T10:01:45.292Z,19.79
2022-08-26T10:04:26.619Z,19.66
2022-08-26T10:07:09.696Z,19.64
2022-08-26T10:09:47.753Z,19.72
2022-08-26T10:12:24.437Z,20.07
2022-08-26T10:15:22.797Z,20.03
2022-08-26T10:18:33.859Z,19.66
2022-08-26T10:21:25.259Z,19.43
2022-08-26T10:24:00.586Z,19.33
2022-08-26T10:27:14.498Z,19.46
2022-08-26T10:29:51.827Z,19.51
2022-08-26T10:32:46.845Z,19.48
2022-08-26T10:35:23.148Z,19.16
2022-08-26T10:38:04.197Z,19.06
2022-08-26T10:40:52.931Z,18.77
2022-08-26T10:43:31.958Z,18.70
2022-08-26T10:46:10.586Z,18.71
2022-08-26T10:48:59.937Z,18.61
2022-08-26T10:51:49.378Z,18.53
2022-08-26T10:54:49.586Z,18.33
2022-08-26T10:57:45.695Z,18.37
2022-08-26T11:00:40.186Z,18.24
2022-08-26T11:03:22.056Z,18.13
2022-08-26T11:06:20.265Z,18.09
2022-08-26T11:08:55.413Z,17.93
2022-08-26T11:11:43.457Z,18.16
2022-08-26T11:14:29.029Z,18.10
2022-08-26T11:17:02.277Z,17.90
2022-08-26T11:19:58.765Z,17.99
2022-08-26T11:22:36.985Z,18.03
2022-08-26T11:25:19.596Z,18.04
2022-08-26T11:27:55.888Z,18.09
2022-08-26T11:30:26.414Z,18.09
2022-08-26T11:32:59.059Z,17.90
2022-08-26T11:35:37.273Z,18.01
2022-08-26T11:38:21.991Z,17.99
2022-08-26T11:41:07.340Z,17.97
2022-08-26T11:43:39.555Z,17.95
2022-08-26T11:46:12.971Z,18.00
2022-08-26T11:48:45.601Z,17.95
2022-08-26T11:51:26.852Z,17.81
2022-08-26T11:54:32.896Z,17.90
2022-08-26T11:57:11.715Z,17.96
2022-08-26T11:59:44.820Z,17.96
2022-08-26T12:02:20.346Z,17.91
2022-08-26T12:04:52.731Z,17.83
2022-08-26T12:07:28.936Z,17.89
2022-08-26T12:10:05.779Z,17.94
2022-08-26T12:12:39.902Z,17.90
2022-08-26T12:15:23.398Z,17.81
2022-08-26T12:17:54.556Z,17.75
2022-08-26T12:20:47.074Z,17.74
2022-08-26T12:23:41.776Z,17.73
2022-08-26T12:26:32.321Z,17.58
2022-08-26T12:29:20.350Z,17.69
2022-08-26T12:32:19.714Z,17.68
2022-08-26T12:34:50.098Z,17.70
2022-08-26T12:37:20.245Z,17.60
2022-08-26T12:39:50.484Z,17.66
2022-08-26T12:42:24.067Z,17.63
2022-08-26T12:45:36.869Z,17.60
2022-08-26T12:48:26.636Z,17.46
2022-08-26T12:50:56.415Z,17.43
2022-08-26T12:53:30.059Z,17.46
2022-08-26T12:56:06.359Z,17.45
2022-08-26T12:58:40.341Z,17.49
2022-08-26T13:01:10.236Z,17.48
2022-08-26T13:03:46.383Z,17.41
2022-08-26T13:06:18.351Z,17.36
2022-08-26T13:08:55.497Z,17.34
2022-08-26T13:11:33.923Z,17.39
2022-08-26T13:14:07.859Z,17.39
2022-08-26T13:16:39.591Z,17.34
2022-08-26T13:19:15.368Z,17.19
2022-08-26T13:21:49.062Z,17.38
2022-08-26T13:24:27.755Z,17.32
2022-08-26T13:26:57.720Z,17.24
2022-08-26T13:29:27.201Z,17.20
2022-08-26T13:31:59.646Z,17.19
2022-08-26T13:34:29.761Z,17.26
2022-08-26T13:37:00.852Z,17.19
2022-08-26T13:39:30.562Z,17.12
2022-08-26T13:42:01.620Z,17.09
2022-08-26T13:44:31.546Z,17.10
2022-08-26T13:47:03.995Z,17.06
2022-08-26T13:49:34.331Z,16.92
2022-08-26T13:52:05.938Z,16.88
2022-08-26T13:54:36.135Z,16.90
2022-08-26T13:57:07.380Z,16.82
2022-08-26T13:59:37.374Z,16.82
2022-08-26T14:02:09.279Z,16.81
2022-08-26T14:04:39.801Z,16.63
2022-08-26T14:07:09.942Z,16.49
2022-08-26T14:09:39.478Z,16.59
2022-08-26T14:12:09.331Z,16.47
2022-08-26T14:14:39.538Z,16.45
2022-08-26T14:17:09.299Z,16.41
2022-08-26T14:19:39.531Z,16.34
2022-08-26T14:22:09.338Z,16.28
2022-08-26T14:24:38.874Z,16.25
2022-08-26T14:27:10.718Z,16.15
2022-08-26T14:29:42.602Z,16.18
2022-08-26T14:32:26.144Z,16.13
2022-08-26T14:34:56.900Z,16.08
2022-08-26T14:37:27.694Z,15.97
2022-08-26T14:39:58.122Z,16.02
2022-08-26T14:42:32.015Z,16.01
2022-08-26T14:45:05.861Z,16.00
2022-08-26T14:47:35.481Z,15.91
2022-08-26T14:50:05.946Z,15.88
2022-08-26T14:52:56.219Z,15.84
2022-08-26T14:55:26.165Z,15.85
2022-08-26T14:58:00.823Z,15.81
2022-08-26T15:00:32.619Z,15.69
2022-08-26T15:03:02.574Z,15.79
2022-08-26T15:05:32.884Z,15.78
2022-08-26T15:08:05.934Z,15.73
2022-08-26T15:10:35.881Z,15.80
2022-08-26T15:13:05.978Z,15.67
2022-08-26T15:15:36.031Z,15.84
2022-08-26T15:18:07.549Z,15.78
2022-08-26T15:20:37.995Z,15.63
2022-08-26T15:23:09.848Z,15.71
2022-08-26T15:25:40.017Z,15.55
2022-08-26T15:28:09.401Z,15.73
2022-08-26T15:30:39.000Z,15.77
2022-08-26T15:33:14.933Z,15.71
2022-08-26T15:35:45.957Z,15.78
2022-08-26T15:38:15.771Z,15.76
2022-08-26T15:40:46.001Z,15.75
2022-08-26T15:43:28.427Z,15.80
2022-08-26T15:45:59.238Z,15.80
2022-08-26T15:48:29.653Z,15.81
2022-08-26T15:51:02.663Z,15.79
2022-08-26T15:53:34.700Z,15.78
2022-08-26T15:56:05.375Z,15.79
2022-08-26T15:58:35.530Z,15.69
2022-08-26T16:01:06.077Z,15.76
2022-08-26T16:03:35.763Z,15.67
2022-08-26T16:07:04.285Z,15.77
2022-08-26T16:09:52.016Z,15.61
2022-08-26T16:12:24.592Z,15.62
2022-08-26T16:14:55.251Z,15.58
2022-08-26T16:17:26.117Z,15.51
2022-08-26T16:19:56.065Z,15.53
2022-08-26T16:22:26.151Z,15.49
2022-08-26T16:24:59.851Z,15.49
2022-08-26T16:27:29.793Z,15.44
2022-08-26T16:29:59.363Z,15.44
2022-08-26T16:32:31.339Z,15.31
2022-08-26T16:35:04.321Z,15.43
2022-08-26T16:37:36.503Z,15.39
2022-08-26T16:40:15.642Z,15.41
2022-08-26T16:42:47.934Z,15.40
2022-08-26T16:50:16.629Z,15.49
2022-08-26T16:52:46.750Z,15.53
2022-08-26T16:55:21.567Z,15.52
2022-08-26T16:57:52.732Z,15.59
2022-08-26T17:00:29.718Z,15.63
2022-08-26T17:03:01.812Z,15.64
2022-08-26T17:05:32.218Z,15.68
2022-08-26T17:08:02.428Z,15.64
2022-08-26T17:10:33.749Z,15.75
2022-08-26T17:13:04.809Z,15.83
2022-08-26T17:15:40.640Z,15.83
2022-08-26T17:18:10.469Z,15.79
2022-08-26T17:20:46.112Z,15.83
2022-08-26T17:23:19.250Z,15.81
2022-08-26T17:25:49.674Z,15.79
2022-08-26T17:28:20.060Z,15.75
2022-08-26T17:30:49.916Z,15.73
2022-08-26T17:33:22.064Z,15.70
2022-08-26T17:35:55.721Z,15.70
2022-08-26T17:38:26.241Z,15.67
2022-08-26T17:40:56.671Z,15.63
2022-08-26T17:43:28.013Z,15.61
2022-08-26T17:46:06.889Z,15.63
2022-08-26T17:48:40.003Z,15.54
2022-08-26T17:51:13.547Z,15.45
2022-08-26T17:53:48.346Z,15.44
2022-08-26T17:56:31.001Z,15.43
2022-08-26T17:59:02.284Z,15.37
2022-08-26T18:01:37.346Z,15.30
2022-08-26T18:04:09.133Z,15.32
2022-08-26T18:06:41.103Z,15.30
2022-08-26T18:09:11.947Z,15.38
2022-08-26T18:11:50.084Z,15.42
2022-08-26T18:14:20.607Z,15.59
2022-08-26T18:16:50.273Z,15.63
2022-08-26T18:19:20.063Z,15.61
2022-08-26T18:21:50.327Z,15.64
2022-08-26T18:24:20.648Z,15.64
2022-08-26T18:26:53.315Z,15.71
2022-08-26T18:29:23.295Z,15.71
2022-08-26T18:31:54.107Z,15.62
2022-08-26T18:34:23.712Z,15.58
2022-08-26T18:37:01.651Z,15.51
2022-08-26T18:39:33.040Z,15.54
2022-08-26T18:42:06.585Z,15.59
2022-08-26T18:44:36.691Z,15.55
2022-08-26T18:47:06.183Z,15.56
2022-08-26T18:49:36.463Z,15.55
2022-08-26T18:52:06.625Z,15.48
2022-08-26T18:54:37.061Z,15.50
2022-08-26T18:57:07.248Z,15.40
2022-08-26T18:59:37.108Z,15.49
2022-08-26T19:02:09.154Z,15.49
2022-08-26T19:04:42.660Z,15.43
2022-08-26T19:07:19.710Z,15.45
2022-08-26T19:09:49.876Z,15.41
2022-08-26T19:12:26.890Z,15.49
2022-08-26T19:14:57.003Z,15.53
2022-08-26T19:17:27.050Z,15.49
2022-08-26T19:19:56.602Z,15.53
2022-08-26T19:22:26.403Z,15.55
2022-08-26T19:24:56.237Z,15.65
2022-08-26T19:27:25.936Z,15.78
2022-08-26T19:29:55.801Z,15.99
2022-08-26T19:32:26.607Z,16.09
2022-08-26T19:34:56.528Z,16.08
2022-08-26T19:37:26.272Z,16.15
2022-08-26T19:39:55.933Z,16.15
2022-08-26T19:42:25.450Z,16.17
2022-08-26T19:45:24.548Z,16.25
2022-08-26T19:47:55.156Z,16.27
2022-08-26T19:50:26.811Z,16.27
2022-08-26T19:52:56.786Z,16.20
2022-08-26T19:55:27.680Z,16.21
2022-08-26T19:57:57.801Z,16.28
2022-08-26T20:00:30.836Z,16.29
2022-08-26T20:03:01.110Z,16.28
2022-08-26T20:05:30.658Z,16.20
2022-08-26T20:08:00.418Z,16.15
2022-08-26T20:10:30.328Z,16.05
2022-08-26T20:13:00.642Z,16.16
2022-08-26T20:15:30.801Z,16.19
2022-08-26T20:18:00.249Z,16.13
2022-08-26T20:20:48.593Z,16.12
2022-08-26T20:23:19.434Z,16.20
2022-08-26T20:25:49.013Z,16.24
2022-08-26T20:28:19.588Z,16.24
2022-08-26T20:30:49.202Z,16.11
2022-08-26T20:33:18.636Z,16.01
2022-08-26T20:35:48.295Z,15.90
2022-08-26T20:38:21.332Z,15.82
2022-08-26T20:40:52.023Z,15.79
2022-08-26T20:43:26.432Z,15.73
2022-08-26T20:45:55.681Z,15.63
2022-08-26T20:48:25.254Z,15.60
2022-08-26T20:51:00.533Z,15.56
2022-08-26T20:53:31.223Z,15.56
2022-08-26T20:56:07.519Z,15.51
2022-08-26T20:58:37.774Z,15.55
2022-08-26T21:01:08.970Z,15.51
2022-08-26T21:03:38.636Z,15.43
2022-08-26T21:06:08.589Z,15.40
2022-08-26T21:08:42.535Z,15.41
2022-08-26T21:11:13.019Z,15.37
2022-08-26T21:14:03.900Z,15.35
2022-08-26T21:16:33.225Z,15.23
2022-08-26T21:19:03.459Z,15.20
2022-08-26T21:21:33.790Z,15.15
2022-08-26T21:24:04.021Z,15.03
2022-08-26T21:26:34.411Z,14.94
2022-08-26T21:29:06.440Z,14.84
2022-08-26T21:31:36.055Z,14.84
2022-08-26T21:34:05.547Z,14.83
2022-08-26T21:36:35.226Z,14.85
2022-08-26T21:39:10.764Z,14.88
2022-08-26T21:41:43.218Z,14.89
2022-08-26T21:44:14.693Z,14.96
2022-08-26T21:46:45.768Z,14.96
2022-08-26T21:49:17.248Z,14.95
2022-08-26T21:51:49.609Z,14.91
2022-08-26T21:54:20.036Z,14.79
2022-08-26T21:56:49.911Z,14.82
2022-08-26T21:59:21.245Z,14.77
2022-08-26T22:01:51.467Z,14.79
2022-08-26T22:04:22.297Z,14.73
2022-08-26T22:06:54.900Z,14.83
2022-08-26T22:09:27.699Z,14.87
2022-08-26T22:12:00.323Z,14.87
2022-08-26T22:14:31.079Z,14.76
2022-08-26T22:17:01.447Z,14.81
2022-08-26T22:19:34.102Z,14.74
2022-08-26T22:22:16.781Z,14.71
2022-08-26T22:24:46.878Z,14.70
2022-08-26T22:27:16.432Z,14.73
2022-08-26T22:29:48.230Z,14.64
2022-08-26T22:32:19.790Z,14.66
2022-08-26T22:34:49.927Z,14.75
2022-08-26T22:37:19.300Z,14.79
2022-08-26T22:39:49.092Z,14.87
2022-08-26T22:42:18.933Z,14.88
2022-08-26T22:44:48.484Z,14.92
2022-08-26T22:47:17.980Z,14.89
2022-08-26T22:49:48.599Z,14.94
2022-08-26T22:52:18.467Z,14.96
2022-08-26T22:54:50.218Z,14.94
2022-08-26T22:57:22.079Z,14.85
2022-08-26T22:59:51.981Z,14.75
2022-08-26T23:02:21.494Z,14.67
2022-08-26T23:04:52.015Z,14.61
2022-08-26T23:07:21.373Z,14.67
2022-08-26T23:09:50.654Z,14.61
2022-08-26T23:12:20.713Z,14.50
2022-08-26T23:14:50.471Z,14.48
2022-08-26T23:17:19.769Z,14.51
2022-08-26T23:19:49.204Z,14.54
2022-08-26T23:22:19.059Z,14.48
2022-08-26T23:24:48.330Z,14.45
2022-08-26T23:27:18.236Z,14.46
2022-08-26T23:29:47.689Z,14.43
2022-08-26T23:32:17.191Z,14.49
2022-08-26T23:35:02.365Z,14.54
2022-08-26T23:37:39.666Z,14.66
2022-08-26T23:40:17.471Z,14.67
2022-08-26T23:42:47.089Z,14.60
2022-08-26T23:45:19.713Z,14.63
2022-08-26T23:47:51.734Z,14.57
2022-08-26T23:50:25.369Z,14.59
2022-08-26T23:53:06.975Z,14.47
2022-08-26T23:55:38.875Z,14.60
2022-08-26T23:58:08.805Z,14.61
